createdAt,value
2022-09-07T00:00:13.790Z,78.53
2022-09-07T00:02:44.754Z,79.26
2022-09-07T00:05:12.286Z,78.76
2022-09-07T00:07:39.839Z,78.62
2022-09-07T00:10:08.286Z,79.01
2022-09-07T00:12:35.823Z,78.80
2022-09-07T00:15:04.831Z,78.90
2022-09-07T00:17:32.199Z,78.63
2022-09-07T00:20:00.845Z,79.16
2022-09-07T00:22:32.588Z,78.77
2022-09-07T00:24:59.883Z,78.89
2022-09-07T00:27:27.287Z,78.87
2022-09-07T00:29:55.109Z,78.88
2022-09-07T00:32:22.505Z,79.19
2022-09-07T00:34:51.313Z,78.83
2022-09-07T00:37:19.048Z,79.08
2022-09-07T00:39:46.528Z,78.79
2022-09-07T00:42:14.805Z,79.18
2022-09-07T00:45:05.605Z,79.11
2022-09-07T00:47:45.076Z,79.02
2022-09-07T00:50:22.278Z,79.50
2022-09-07T00:52:57.071Z,79.42
2022-09-07T00:55:25.281Z,79.32
2022-09-07T00:57:55.924Z,79.25
2022-09-07T01:00:23.489Z,79.47
2022-09-07T01:02:54.827Z,79.63
2022-09-07T01:05:45.165Z,79.41
2022-09-07T01:08:14.800Z,79.10
2022-09-07T01:10:42.345Z,78.82
2022-09-07T01:13:09.537Z,79.40
2022-09-07T01:16:01.568Z,79.23
2022-09-07T01:19:07.398Z,79.49
2022-09-07T01:21:47.404Z,78.90
2022-09-07T01:24:35.715Z,78.88
2022-09-07T01:27:27.807Z,78.89
2022-09-07T01:30:14.742Z,78.81
2022-09-07T01:32:47.683Z,78.86
2022-09-07T01:35:32.020Z,78.45
2022-09-07T01:38:05.331Z,78.55
2022-09-07T01:40:45.028Z,78.46
2022-09-07T01:43:29.397Z,78.84
2022-09-07T01:45:58.790Z,79.02
2022-09-07T01:48:28.818Z,78.99
2022-09-07T01:51:04.008Z,78.68
2022-09-07T01:53:40.494Z,79.03
2022-09-07T01:56:13.240Z,78.90
2022-09-07T01:58:46.523Z,79.45
2022-09-07T02:01:34.378Z,79.77
2022-09-07T02:04:10.906Z,79.64
2022-09-07T02:06:47.704Z,79.68
2022-09-07T02:09:26.863Z,79.57
2022-09-07T02:11:54.902Z,79.83
2022-09-07T02:14:39.812Z,80.13
2022-09-07T02:17:13.650Z,80.27
2022-09-07T02:19:55.071Z,80.29
2022-09-07T02:22:27.847Z,80.47
2022-09-07T02:25:02.442Z,80.77
2022-09-07T02:27:41.087Z,80.78
2022-09-07T02:30:08.891Z,81.28
2022-09-07T02:32:36.098Z,81.13
2022-09-07T02:37:50.364Z,81.28
2022-09-07T02:40:17.741Z,81.51
2022-09-07T02:42:47.396Z,81.42
2022-09-07T02:45:17.077Z,82.01
2022-09-07T02:47:44.153Z,81.86
2022-09-07T02:50:26.749Z,82.00
2022-09-07T02:52:53.919Z,82.11
2022-09-07T02:55:37.744Z,82.65
2022-09-07T02:58:44.289Z,82.52
2022-09-07T03:01:39.497Z,82.53
2022-09-07T03:04:17.852Z,82.44
2022-09-07T03:07:10.057Z,82.87
2022-09-07T03:09:43.883Z,82.65
2022-09-07T03:12:11.631Z,82.64
2022-09-07T03:14:43.973Z,82.74
2022-09-07T03:17:11.982Z,83.20
2022-09-07T03:19:39.144Z,82.54
2022-09-07T03:22:06.589Z,82.70
2022-09-07T03:31:58.077Z,83.04
2022-09-07T03:34:25.375Z,83.08
2022-09-07T03:36:52.837Z,83.02
2022-09-07T03:39:23.910Z,83.16
2022-09-07T03:41:51.129Z,83.16
2022-09-07T03:44:18.522Z,83.39
2022-09-07T03:46:45.765Z,83.03
2022-09-07T03:49:13.070Z,83.14
2022-09-07T03:51:40.521Z,83.02
2022-09-07T03:54:08.654Z,82.93
2022-09-07T03:56:36.153Z,83.35
2022-09-07T03:59:03.470Z,82.97
2022-09-07T04:01:30.871Z,83.66
2022-09-07T04:04:02.698Z,83.51
2022-09-07T04:06:31.051Z,83.05
2022-09-07T04:09:03.861Z,83.24
2022-09-07T04:11:32.117Z,83.40
2022-09-07T04:13:59.493Z,83.53
2022-09-07T04:16:27.922Z,83.55
2022-09-07T04:18:55.383Z,83.77
2022-09-07T04:21:24.140Z,83.85
2022-09-07T04:23:52.179Z,83.49
2022-09-07T04:26:21.818Z,83.50
2022-09-07T04:28:49.744Z,83.30
2022-09-07T04:31:19.084Z,83.25
2022-09-07T04:33:48.009Z,83.40
2022-09-07T04:36:17.184Z,82.96
2022-09-07T04:38:45.421Z,83.14
2022-09-07T04:41:21.427Z,82.36
2022-09-07T04:43:48.674Z,82.29
2022-09-07T04:46:19.994Z,82.32
2022-09-07T04:48:55.916Z,81.94
2022-09-07T04:51:25.878Z,82.01
2022-09-07T04:53:56.918Z,81.11
2022-09-07T04:56:25.454Z,81.15
2022-09-07T04:58:53.254Z,81.06
2022-09-07T05:01:23.086Z,80.97
2022-09-07T05:03:51.528Z,80.62
2022-09-07T05:06:23.416Z,80.20
2022-09-07T05:08:54.541Z,80.26
2022-09-07T05:11:28.816Z,79.64
2022-09-07T05:14:01.914Z,79.44
2022-09-07T05:16:30.200Z,79.21
2022-09-07T05:19:03.253Z,79.10
2022-09-07T05:21:35.207Z,78.47
2022-09-07T05:24:04.372Z,78.28
2022-09-07T05:26:34.173Z,78.39
2022-09-07T05:31:51.814Z,77.97
2022-09-07T05:34:34.557Z,78.06
2022-09-07T05:37:01.876Z,78.02
2022-09-07T05:39:29.472Z,77.52
2022-09-07T05:41:56.865Z,77.56
2022-09-07T05:47:14.194Z,77.01
2022-09-07T05:49:41.802Z,76.98
2022-09-07T05:52:09.107Z,76.59
2022-09-07T05:54:36.456Z,76.25
2022-09-07T05:57:04.711Z,76.62
2022-09-07T05:59:31.943Z,76.64
2022-09-07T06:02:00.985Z,76.34
2022-09-07T06:04:28.505Z,76.22
2022-09-07T06:07:20.615Z,75.74
2022-09-07T06:12:33.269Z,75.59
2022-09-07T06:15:02.254Z,75.38
2022-09-07T06:17:31.517Z,75.55
2022-09-07T06:19:58.770Z,75.25
2022-09-07T06:22:30.122Z,75.50
2022-09-07T06:24:58.228Z,75.05
2022-09-07T06:27:30.129Z,75.08
2022-09-07T06:29:58.300Z,74.85
2022-09-07T06:35:13.694Z,74.50
2022-09-07T06:37:41.723Z,74.19
2022-09-07T06:40:11.013Z,73.73
2022-09-07T06:42:38.901Z,73.61
2022-09-07T06:45:06.864Z,73.02
2022-09-07T06:47:34.215Z,72.56
2022-09-07T06:50:01.619Z,71.79
2022-09-07T06:55:18.204Z,70.43
2022-09-07T06:57:45.742Z,69.75
2022-09-07T07:00:13.400Z,69.84
2022-09-07T07:02:40.673Z,69.66
2022-09-07T07:05:08.473Z,69.07
2022-09-07T07:07:35.793Z,69.21
2022-09-07T07:10:02.997Z,69.30
2022-09-07T07:14:57.887Z,67.96
2022-09-07T07:17:25.244Z,68.06
2022-09-07T07:19:52.430Z,67.97
2022-09-07T07:22:42.980Z,68.44
2022-09-07T07:25:07.115Z,67.73
2022-09-07T07:27:34.519Z,67.61
2022-09-07T07:30:01.872Z,68.11
2022-09-07T07:32:32.779Z,68.14
2022-09-07T07:35:00.533Z,66.93
2022-09-07T07:37:28.447Z,67.01
2022-09-07T07:42:44.785Z,66.88
2022-09-07T07:47:59.588Z,66.95
2022-09-07T07:50:34.379Z,67.14
2022-09-07T07:55:49.746Z,66.72
2022-09-07T07:58:17.735Z,66.73
2022-09-07T08:00:54.431Z,66.27
2022-09-07T08:03:26.009Z,66.57
2022-09-07T08:05:54.837Z,65.62
2022-09-07T08:08:23.408Z,65.57
2022-09-07T08:10:51.098Z,65.60
2022-09-07T08:13:19.421Z,65.77
2022-09-07T08:15:46.989Z,65.46
2022-09-07T08:18:16.800Z,64.99
2022-09-07T08:20:44.209Z,64.07
2022-09-07T08:23:11.869Z,63.44
2022-09-07T08:25:39.399Z,63.25
2022-09-07T08:28:07.750Z,63.87
2022-09-07T08:30:35.253Z,63.67
2022-09-07T08:33:03.120Z,63.04
2022-09-07T08:35:30.136Z,62.95
2022-09-07T08:37:57.185Z,62.66
2022-09-07T08:40:24.800Z,62.35
2022-09-07T08:43:17.150Z,62.32
2022-09-07T08:45:49.964Z,62.02
2022-09-07T08:48:29.392Z,62.23
2022-09-07T08:51:07.210Z,62.72
2022-09-07T08:53:37.602Z,62.69
2022-09-07T08:56:12.042Z,62.25
2022-09-07T08:58:49.536Z,61.55
2022-09-07T09:01:32.386Z,60.82
2022-09-07T09:04:17.573Z,59.11
2022-09-07T09:06:45.512Z,58.51
2022-09-07T09:09:21.170Z,58.00
2022-09-07T09:12:12.435Z,58.34
2022-09-07T09:15:04.701Z,59.19
2022-09-07T09:17:38.366Z,58.82
2022-09-07T09:20:27.080Z,57.51
2022-09-07T09:23:15.353Z,57.92
2022-09-07T09:25:54.053Z,57.31
2022-09-07T09:28:22.161Z,57.53
2022-09-07T09:30:50.157Z,57.36
2022-09-07T09:33:26.535Z,56.95
2022-09-07T09:35:57.966Z,56.96
2022-09-07T09:38:43.721Z,56.77
2022-09-07T09:41:18.378Z,57.19
2022-09-07T09:43:47.197Z,57.52
2022-09-07T09:46:28.557Z,57.84
2022-09-07T09:49:05.247Z,57.67
2022-09-07T09:54:33.833Z,58.10
2022-09-07T09:57:01.537Z,57.11
2022-09-07T10:05:39.824Z,56.88
2022-09-07T10:08:15.843Z,56.62
2022-09-07T10:11:15.751Z,57.09
2022-09-07T10:13:56.540Z,56.53
2022-09-07T10:16:45.004Z,56.99
2022-09-07T10:19:38.397Z,57.33
2022-09-07T10:22:22.351Z,57.90
2022-09-07T10:24:50.581Z,57.40
2022-09-07T10:27:35.383Z,57.30
2022-09-07T10:30:16.221Z,56.85
2022-09-07T10:32:49.412Z,57.03
2022-09-07T10:35:39.624Z,56.12
2022-09-07T10:38:12.414Z,56.71
2022-09-07T10:40:58.436Z,56.55
2022-09-07T10:43:41.444Z,57.57
2022-09-07T10:50:21.968Z,58.63
2022-09-07T10:52:52.322Z,58.41
2022-09-07T10:55:26.786Z,58.43
2022-09-07T10:57:57.066Z,59.29
2022-09-07T11:00:26.540Z,59.97
2022-09-07T11:06:00.402Z,60.44
2022-09-07T11:14:37.233Z,63.49
2022-09-07T11:17:14.451Z,64.72
2022-09-07T11:19:53.833Z,65.66
2022-09-07T11:22:46.818Z,66.51
2022-09-07T11:25:35.870Z,67.07
2022-09-07T11:28:44.748Z,68.31
2022-09-07T11:31:25.037Z,68.97
2022-09-07T11:34:24.825Z,69.35
2022-09-07T11:37:15.902Z,71.44
2022-09-07T11:39:59.417Z,73.38
2022-09-07T11:42:45.751Z,74.13
2022-09-07T11:45:22.386Z,74.47
2022-09-07T11:48:06.437Z,74.73
2022-09-07T11:50:39.532Z,74.84
2022-09-07T11:53:18.359Z,75.82
2022-09-07T11:55:50.609Z,75.76
2022-09-07T11:58:32.866Z,76.71
2022-09-07T12:01:27.684Z,75.91
2022-09-07T12:04:14.635Z,77.45
2022-09-07T12:07:01.808Z,76.22
2022-09-07T12:09:48.279Z,76.75
2022-09-07T12:12:46.754Z,75.94
2022-09-07T12:15:30.632Z,76.96
2022-09-07T12:18:22.377Z,76.64
2022-09-07T12:20:49.779Z,76.92
2022-09-07T12:23:16.726Z,78.37
2022-09-07T12:25:45.050Z,78.74
2022-09-07T12:28:24.539Z,77.30
2022-09-07T12:30:56.586Z,77.82
2022-09-07T12:33:30.192Z,77.38
2022-09-07T12:35:59.170Z,77.25
2022-09-07T12:38:32.635Z,77.55
2022-09-07T12:41:22.402Z,77.96
2022-09-07T12:43:49.372Z,78.60
2022-09-07T12:46:35.357Z,78.61
2022-09-07T12:49:24.392Z,80.13
2022-09-07T12:52:00.232Z,81.09
2022-09-07T12:55:09.964Z,83.25
2022-09-07T12:58:17.506Z,80.41
2022-09-07T13:00:56.688Z,81.13
2022-09-07T13:09:37.177Z,81.74
2022-09-07T13:15:38.973Z,81.94
2022-09-07T13:18:10.616Z,81.91
2022-09-07T13:20:42.963Z,82.85
2022-09-07T13:23:23.501Z,84.80
2022-09-07T13:25:53.960Z,83.82
2022-09-07T13:28:56.218Z,84.49
2022-09-07T13:31:45.145Z,84.97
2022-09-07T13:34:34.184Z,85.08
2022-09-07T13:37:03.304Z,85.37
2022-09-07T13:39:39.108Z,86.17
2022-09-07T13:42:09.755Z,86.21
2022-09-07T13:44:37.081Z,87.33
2022-09-07T13:47:25.880Z,87.70
2022-09-07T13:50:02.286Z,88.18
2022-09-07T13:53:23.570Z,88.99
2022-09-07T13:56:08.994Z,89.44
2022-09-07T13:58:40.491Z,90.17
2022-09-07T14:01:13.679Z,90.46
2022-09-07T14:04:07.747Z,91.43
2022-09-07T14:06:37.018Z,91.33
2022-09-07T14:09:21.275Z,91.06
2022-09-07T14:11:54.612Z,91.58
2022-09-07T14:14:31.132Z,90.62
2022-09-07T14:17:02.078Z,90.53
2022-09-07T14:19:39.580Z,90.57
2022-09-07T14:22:13.205Z,90.04
2022-09-07T14:24:47.670Z,89.77
2022-09-07T14:27:27.093Z,89.17
2022-09-07T14:29:54.461Z,89.47
2022-09-07T14:32:24.900Z,89.40
2022-09-07T14:34:52.582Z,88.90
2022-09-07T14:37:22.942Z,87.88
2022-09-07T14:39:51.107Z,87.88
2022-09-07T14:42:23.109Z,88.10
2022-09-07T14:44:51.666Z,87.36
2022-09-07T14:47:30.274Z,86.68
2022-09-07T14:50:06.182Z,86.29
2022-09-07T14:53:33.504Z,85.68
2022-09-07T14:55:39.024Z,86.44
2022-09-07T14:58:15.166Z,86.02
2022-09-07T15:00:44.643Z,86.05
2022-09-07T15:03:37.490Z,85.19
2022-09-07T15:07:00.921Z,85.13
2022-09-07T15:08:59.339Z,84.85
2022-09-07T15:11:36.431Z,85.35
2022-09-07T15:14:10.877Z,84.63
2022-09-07T15:16:44.799Z,85.13
2022-09-07T15:19:20.814Z,84.40
2022-09-07T15:21:48.220Z,84.25
2022-09-07T15:24:16.556Z,84.56
2022-09-07T15:29:35.220Z,83.86
2022-09-07T15:32:05.122Z,84.10
2022-09-07T15:34:34.404Z,84.53
2022-09-07T15:37:02.816Z,83.36
2022-09-07T15:39:31.677Z,83.67
2022-09-07T15:44:56.378Z,83.98
2022-09-07T15:50:11.242Z,84.40
2022-09-07T15:52:38.899Z,84.75
2022-09-07T15:55:08.859Z,84.49
2022-09-07T15:58:08.712Z,84.38
2022-09-07T16:00:25.852Z,85.13
2022-09-07T16:03:09.105Z,85.34
2022-09-07T16:05:40.827Z,85.73
2022-09-07T16:11:05.795Z,84.66
2022-09-07T16:13:34.589Z,85.01
2022-09-07T16:16:05.776Z,84.99
2022-09-07T16:18:34.088Z,83.96
2022-09-07T16:21:12.768Z,84.67
2022-09-07T16:23:44.532Z,84.31
2022-09-07T16:26:12.178Z,84.74
2022-09-07T16:28:41.305Z,84.67
2022-09-07T16:31:14.123Z,84.99
2022-09-07T16:33:41.280Z,84.87
2022-09-07T16:36:13.188Z,85.25
2022-09-07T16:41:31.625Z,84.62
2022-09-07T16:43:59.420Z,85.22
2022-09-07T16:46:30.781Z,85.24
2022-09-07T16:48:58.776Z,85.64
2022-09-07T16:51:26.186Z,85.60
2022-09-07T16:53:59.378Z,85.65
2022-09-07T16:59:16.226Z,85.32
2022-09-07T17:01:43.879Z,85.74
2022-09-07T17:04:11.590Z,84.76
2022-09-07T17:06:40.252Z,84.83
2022-09-07T17:11:49.927Z,85.57
2022-09-07T17:14:18.178Z,85.50
2022-09-07T17:16:45.802Z,85.94
2022-09-07T17:19:30.464Z,86.21
2022-09-07T17:21:59.012Z,86.15
2022-09-07T17:24:26.868Z,85.93
2022-09-07T17:26:54.291Z,85.71
2022-09-07T17:29:21.734Z,85.49
2022-09-07T17:34:37.127Z,85.83
2022-09-07T17:37:04.255Z,86.05
2022-09-07T17:39:31.427Z,85.99
2022-09-07T17:41:58.771Z,86.21
2022-09-07T17:44:25.845Z,85.86
2022-09-07T17:46:53.066Z,85.21
2022-09-07T17:49:20.184Z,84.95
2022-09-07T17:51:47.490Z,84.80
2022-09-07T17:54:17.632Z,84.90
2022-09-07T17:56:46.278Z,84.73
2022-09-07T18:02:01.140Z,85.05
2022-09-07T18:04:28.895Z,85.82
2022-09-07T18:06:56.188Z,85.44
2022-09-07T18:09:23.673Z,85.13
2022-09-07T18:11:51.175Z,84.91
2022-09-07T18:14:19.250Z,85.09
2022-09-07T18:16:49.381Z,84.48
2022-09-07T18:19:18.278Z,85.25
2022-09-07T18:21:48.058Z,85.30
2022-09-07T18:24:23.007Z,84.91
2022-09-07T18:26:53.179Z,85.41
2022-09-07T18:29:32.817Z,85.82
2022-09-07T18:32:02.767Z,86.17
2022-09-07T18:34:32.344Z,86.00
2022-09-07T18:37:00.493Z,86.69
2022-09-07T18:42:09.854Z,86.83
2022-09-07T18:47:27.910Z,85.88
2022-09-07T18:49:55.620Z,86.29
2022-09-07T18:55:10.345Z,85.18
2022-09-07T18:57:38.259Z,85.63
2022-09-07T19:00:08.570Z,85.87
2022-09-07T19:02:36.146Z,85.50
2022-09-07T19:07:50.690Z,85.45
2022-09-07T19:10:17.886Z,85.10
2022-09-07T19:12:46.312Z,85.04
2022-09-07T19:15:14.122Z,85.46
2022-09-07T19:17:41.226Z,85.93
2022-09-07T19:20:09.106Z,85.84
2022-09-07T19:22:36.149Z,86.35
2022-09-07T19:25:03.257Z,86.75
2022-09-07T19:27:33.156Z,86.42
2022-09-07T19:30:01.492Z,86.44
2022-09-07T19:32:30.497Z,87.21
2022-09-07T19:34:57.637Z,86.88
2022-09-07T19:37:43.556Z,87.01
2022-09-07T19:40:14.662Z,87.40
2022-09-07T19:42:46.190Z,87.63
2022-09-07T19:45:14.214Z,87.62
2022-09-07T19:47:41.169Z,87.83
2022-09-07T19:50:08.820Z,87.71
2022-09-07T19:52:36.302Z,87.49
2022-09-07T19:55:04.120Z,87.55
2022-09-07T19:57:31.171Z,87.64
2022-09-07T19:59:59.314Z,88.03
2022-09-07T20:02:34.543Z,88.03
2022-09-07T20:05:01.874Z,88.24
2022-09-07T20:07:35.174Z,88.12
2022-09-07T20:10:02.275Z,88.02
2022-09-07T20:12:30.263Z,88.77
2022-09-07T20:14:57.141Z,88.25
2022-09-07T20:17:24.270Z,88.09
2022-09-07T20:19:51.249Z,87.97
2022-09-07T20:22:18.117Z,87.67
2022-09-07T20:24:45.180Z,87.71
2022-09-07T20:27:12.198Z,87.61
2022-09-07T20:29:42.390Z,87.42
2022-09-07T20:32:09.904Z,87.55
2022-09-07T20:34:37.760Z,87.97
2022-09-07T20:37:05.485Z,87.81
2022-09-07T20:39:36.990Z,87.93
2022-09-07T20:42:07.038Z,87.64
2022-09-07T20:44:34.083Z,88.10
2022-09-07T20:47:01.245Z,88.10
2022-09-07T20:49:28.489Z,87.88
2022-09-07T20:51:55.516Z,88.27
2022-09-07T20:54:23.103Z,88.48
2022-09-07T20:56:50.241Z,88.70
2022-09-07T20:59:17.294Z,89.33
2022-09-07T21:01:44.356Z,89.38
2022-09-07T21:04:11.477Z,89.76
2022-09-07T21:06:38.619Z,90.16
2022-09-07T21:09:05.869Z,90.75
2022-09-07T21:11:34.717Z,90.93
2022-09-07T21:14:22.574Z,91.23
2022-09-07T21:16:49.567Z,91.66
2022-09-07T21:19:16.462Z,91.81
2022-09-07T21:21:43.660Z,91.38
2022-09-07T21:24:17.918Z,91.77
2022-09-07T21:26:45.943Z,91.78
2022-09-07T21:29:23.332Z,92.44
2022-09-07T21:31:52.903Z,92.32
2022-09-07T21:34:20.446Z,92.53
2022-09-07T21:36:47.844Z,92.95
2022-09-07T21:39:16.291Z,92.21
2022-09-07T21:41:44.328Z,92.03
2022-09-07T21:44:16.165Z,91.82
2022-09-07T21:46:44.247Z,92.04
2022-09-07T21:49:11.989Z,91.55
2022-09-07T21:51:39.204Z,91.98
2022-09-07T21:54:06.341Z,91.93
2022-09-07T21:56:33.528Z,92.50
2022-09-07T21:59:02.814Z,92.75
2022-09-07T22:01:31.242Z,92.68
2022-09-07T22:04:03.921Z,92.92
2022-09-07T22:06:32.541Z,92.55
2022-09-07T22:09:01.284Z,92.09
2022-09-07T22:11:29.228Z,91.88
2022-09-07T22:13:59.042Z,91.66
2022-09-07T22:16:26.420Z,91.87
2022-09-07T22:18:53.708Z,92.02
2022-09-07T22:21:25.964Z,91.85
2022-09-07T22:23:56.432Z,92.04
2022-09-07T22:26:25.478Z,92.53
2022-09-07T22:28:52.750Z,92.20
2022-09-07T22:31:19.996Z,92.46
2022-09-07T22:33:48.974Z,92.25
2022-09-07T22:36:26.148Z,92.01
2022-09-07T22:38:55.672Z,92.29
2022-09-07T22:41:25.952Z,92.14
2022-09-07T22:43:52.993Z,92.13
2022-09-07T22:46:20.734Z,91.75
2022-09-07T22:48:48.602Z,91.72
2022-09-07T22:51:16.713Z,91.94
2022-09-07T22:53:44.371Z,92.25
2022-09-07T22:56:14.934Z,91.92
2022-09-07T22:58:46.992Z,91.92
2022-09-07T23:01:15.237Z,92.02
2022-09-07T23:03:43.948Z,91.60
2022-09-07T23:06:21.901Z,91.37
2022-09-07T23:08:53.002Z,91.27
2022-09-07T23:11:21.404Z,91.33
2022-09-07T23:13:57.235Z,91.13
2022-09-07T23:16:25.601Z,91.39
2022-09-07T23:18:52.744Z,90.61
2022-09-07T23:21:20.071Z,90.57
2022-09-07T23:23:53.284Z,90.47
2022-09-07T23:26:21.864Z,90.61
2022-09-07T23:28:57.092Z,90.80
2022-09-07T23:31:25.884Z,90.41
2022-09-07T23:33:53.107Z,90.64
2022-09-07T23:36:20.575Z,91.21
2022-09-07T23:38:47.986Z,91.47
2022-09-07T23:41:17.932Z,91.42
2022-09-07T23:43:45.543Z,91.04
2022-09-07T23:46:13.704Z,91.02
2022-09-07T23:48:42.815Z,90.52
2022-09-07T23:51:10.040Z,90.74
2022-09-07T23:53:37.275Z,90.43
2022-09-07T23:56:04.556Z,90.48
2022-09-07T23:58:31.657Z,89.99
